Yuendumu, Australia
Current Conditions -  °F | °C
As of 5:00 AM on Thursday 27 Nov 2014 (Local Time) from YBAS Reporting Station
Clear Clear  
Wind Chill: 75°   Ceiling: Unl
Heat Index: 75°   Visibility: 6mi
Dew Point: 27°   Wind: 8mph
Humidity: 17%   Direction: 110°ESE
Pressure: 30"   Gusts: NA
Location:  22.26°S, 131.8°E
Report Text: YBAS 262000Z AUTO 11007KT 9999 // NCD 24/M03 Q1016
Loading
Personal Weather Stations






























Interactive Weather Map New forecast layout! Learn more

10-Day Weather Forecast

Advertisements
Track Severe Weather on mobile